createdAt,value
2022-09-23T10:36:22.654Z,517.98
2022-09-23T10:40:55.047Z,518.33
2022-09-23T10:41:05.048Z,518.40
2022-09-23T10:41:14.945Z,518.41
2022-09-23T10:42:54.230Z,518.69
2022-09-23T10:43:04.221Z,518.62
2022-09-23T10:43:14.214Z,518.41
2022-09-23T10:43:24.216Z,518.54
2022-09-23T10:43:34.219Z,518.54
2022-09-23T10:43:44.234Z,518.55
2022-09-23T10:45:54.751Z,518.79
2022-09-23T10:46:04.746Z,518.75
2022-09-23T10:46:14.730Z,518.62
2022-09-23T10:46:24.734Z,518.66
2022-09-23T10:46:34.743Z,518.72
2022-09-23T10:46:44.722Z,518.76
2022-09-23T10:46:54.681Z,518.85
2022-09-23T10:47:04.682Z,518.82
2022-09-23T10:58:20.593Z,519.27
2022-09-23T11:02:28.585Z,519.67
2022-09-23T11:02:38.551Z,519.63
2022-09-23T11:02:48.564Z,519.51
2022-09-23T11:02:58.580Z,519.67
2022-09-23T11:03:08.554Z,519.58
2022-09-23T11:03:18.563Z,519.69
2022-09-23T11:03:28.556Z,519.70
2022-09-23T11:03:38.559Z,519.66
2022-09-23T11:03:48.558Z,519.75
2022-09-23T11:03:58.658Z,519.81
2022-09-23T11:04:08.970Z,519.67
2022-09-23T11:04:18.770Z,519.63
2022-09-23T11:04:28.681Z,519.59
2022-09-23T11:04:38.588Z,519.57
2022-09-23T11:04:48.608Z,519.54
2022-09-23T11:04:58.590Z,519.68
2022-09-23T11:05:08.618Z,519.57
2022-09-23T11:07:07.903Z,519.46
2022-09-23T11:07:17.891Z,519.45
2022-09-23T11:07:27.927Z,519.65
2022-09-23T11:07:37.885Z,519.49
2022-09-23T11:07:47.885Z,519.57
2022-09-23T11:07:57.916Z,519.67
2022-09-23T11:09:44.888Z,519.76
2022-09-23T11:11:43.155Z,519.80
2022-09-23T11:14:02.359Z,519.98
2022-09-23T11:15:18.764Z,519.96
2022-09-23T11:15:28.750Z,519.98
2022-09-23T11:18:53.179Z,521.05
2022-09-23T11:19:03.178Z,520.69
2022-09-23T11:19:30.421Z,520.62
2022-09-23T11:19:30.715Z,520.60
2022-09-23T11:19:45.324Z,520.22
2022-09-23T11:19:50.714Z,520.29
2022-09-23T11:21:05.730Z,520.73
2022-09-23T11:21:15.723Z,520.88
2022-09-23T11:21:25.715Z,520.65
2022-09-23T11:21:35.714Z,520.69
2022-09-23T11:21:45.722Z,520.93
2022-09-23T11:23:25.881Z,521.20
2022-09-23T11:23:35.865Z,521.00
2022-09-23T11:23:45.868Z,520.97
2022-09-23T11:26:44.503Z,521.82
2022-09-23T11:26:54.487Z,521.74
2022-09-23T11:33:09.731Z,522.48
2022-09-23T11:34:35.196Z,522.95
2022-09-23T11:34:45.199Z,523.01
2022-09-23T11:34:55.252Z,522.97
2022-09-23T11:35:05.179Z,523.03
2022-09-23T11:35:15.182Z,523.14
2022-09-23T11:35:25.187Z,523.10
2022-09-23T11:35:35.189Z,523.03
2022-09-23T11:35:45.213Z,522.97
2022-09-23T11:35:55.194Z,522.90
2022-09-23T11:36:05.186Z,522.96
2022-09-23T11:37:21.615Z,523.09
2022-09-23T11:37:31.603Z,523.12
2022-09-23T11:37:41.592Z,523.26
2022-09-23T11:37:51.591Z,523.04
2022-09-23T11:38:01.592Z,523.10
2022-09-23T11:39:31.952Z,523.10
2022-09-23T11:40:48.400Z,523.87
2022-09-23T11:40:58.373Z,523.88
2022-09-23T11:41:08.383Z,523.81
2022-09-23T11:41:18.335Z,523.60
2022-09-23T11:41:28.337Z,523.66
2022-09-23T11:41:38.363Z,523.36
2022-09-23T11:41:48.335Z,523.61
2022-09-23T11:41:58.341Z,523.64
2022-09-23T11:42:08.336Z,523.61
2022-09-23T11:42:18.340Z,523.51
2022-09-23T11:42:28.348Z,523.69
2022-09-23T11:42:38.341Z,523.71
2022-09-23T11:42:48.343Z,523.81
2022-09-23T11:44:10.699Z,524.00
2022-09-23T11:44:20.699Z,523.92
2022-09-23T11:44:30.688Z,524.19
2022-09-23T11:44:40.681Z,523.95
2022-09-23T11:44:50.702Z,524.20
2022-09-23T11:45:00.682Z,524.93
2022-09-23T11:45:10.693Z,524.46
2022-09-23T11:45:20.702Z,524.78
2022-09-23T11:45:30.754Z,524.63
2022-09-23T11:45:40.718Z,524.41
2022-09-23T11:45:50.744Z,524.31
2022-09-23T11:46:00.754Z,524.28
2022-09-23T11:46:10.738Z,524.07
2022-09-23T11:46:20.740Z,524.00
2022-09-23T11:46:30.814Z,524.14
2022-09-23T11:46:40.691Z,524.25
2022-09-23T11:46:50.697Z,524.14
2022-09-23T11:48:07.509Z,523.87
2022-09-23T11:48:17.500Z,524.22
2022-09-23T11:48:27.496Z,524.21
2022-09-23T11:48:37.497Z,524.50
2022-09-23T11:48:47.503Z,524.50
2022-09-23T11:48:57.498Z,524.38
2022-09-23T11:49:07.498Z,524.37
2022-09-23T11:49:17.500Z,524.45
2022-09-23T11:49:27.502Z,524.47
2022-09-23T11:49:37.503Z,524.47
2022-09-23T11:49:47.505Z,524.59
2022-09-23T11:49:57.521Z,524.48
2022-09-23T11:50:07.502Z,524.54
2022-09-23T11:50:17.508Z,524.70
2022-09-23T11:50:27.507Z,524.95
2022-09-23T11:50:37.517Z,525.04
2022-09-23T11:50:47.509Z,524.58
2022-09-23T11:50:57.505Z,524.41
2022-09-23T11:51:07.506Z,524.54
2022-09-23T11:51:17.507Z,524.48
2022-09-23T11:51:27.555Z,524.77
2022-09-23T11:51:37.510Z,524.78
2022-09-23T11:51:47.511Z,524.69
2022-09-23T11:51:57.507Z,524.98
2022-09-23T11:52:07.509Z,524.80
2022-09-23T11:53:29.876Z,525.34
2022-09-23T11:53:39.855Z,525.28
2022-09-23T11:53:49.872Z,525.10
2022-09-23T11:53:59.967Z,525.29
2022-09-23T11:54:09.913Z,525.15
2022-09-23T11:54:20.823Z,525.27
2022-09-23T11:54:29.853Z,525.42
2022-09-23T11:54:51.529Z,525.44
2022-09-23T11:54:51.804Z,525.70
2022-09-23T11:55:04.420Z,525.53
2022-09-23T11:55:21.550Z,525.45
2022-09-23T11:55:23.407Z,525.58
2022-09-23T11:55:31.795Z,525.67
2022-09-23T11:55:53.564Z,525.71
2022-09-23T11:55:57.906Z,525.78
2022-09-23T11:56:02.799Z,525.61
2022-09-23T11:56:11.961Z,525.73
2022-09-23T11:56:31.945Z,525.80
2022-09-23T11:56:35.859Z,525.84
2022-09-23T11:56:44.672Z,525.78
2022-09-23T11:56:51.801Z,525.84
2022-09-23T11:57:01.804Z,526.07
2022-09-23T11:57:11.804Z,526.22
2022-09-23T11:57:21.802Z,526.02
2022-09-23T11:57:42.514Z,526.05
2022-09-23T11:57:49.038Z,526.22
2022-09-23T11:57:52.806Z,526.09
2022-09-23T11:58:01.856Z,526.10
2022-09-23T11:58:23.408Z,525.99
2022-09-23T11:58:25.950Z,525.96
2022-09-23T11:58:31.862Z,526.02
2022-09-23T11:58:43.258Z,525.89
2022-09-23T11:58:55.692Z,525.86
2022-09-23T11:59:02.880Z,526.02
2022-09-23T11:59:12.064Z,526.06
2022-09-23T11:59:31.706Z,526.09
2022-09-23T11:59:40.032Z,526.05
2022-09-23T11:59:42.882Z,525.89
2022-09-23T12:01:43.100Z,526.07
2022-09-23T12:01:50.025Z,526.19
2022-09-23T12:02:03.775Z,526.28
2022-09-23T12:03:21.008Z,526.01
2022-09-23T12:03:41.626Z,526.06
2022-09-23T12:03:44.703Z,525.95
2022-09-23T12:03:50.619Z,526.08
2022-09-23T12:04:10.273Z,526.26
2022-09-23T12:04:20.017Z,526.25
2022-09-23T12:04:21.843Z,526.25
2022-09-23T12:04:30.947Z,526.27
2022-09-23T12:04:52.911Z,526.35
2022-09-23T12:09:13.541Z,526.33
2022-09-23T12:09:36.004Z,526.11
2022-09-23T12:09:57.214Z,525.89
2022-09-23T12:09:58.440Z,525.84
2022-09-23T12:09:59.834Z,525.98
2022-09-23T12:10:03.552Z,526.21
2022-09-23T12:10:13.531Z,526.78
2022-09-23T12:10:23.540Z,526.38
2022-09-23T12:10:33.575Z,526.17
2022-09-23T12:10:43.531Z,526.22
2022-09-23T12:10:53.531Z,526.34
2022-09-23T12:11:03.540Z,526.72
2022-09-23T12:11:13.542Z,526.55
2022-09-23T12:11:23.544Z,526.44
2022-09-23T12:12:43.992Z,526.35
2022-09-23T12:12:53.958Z,526.27
2022-09-23T12:13:03.961Z,526.08
2022-09-23T12:13:13.959Z,526.12
2022-09-23T12:13:23.962Z,526.27
2022-09-23T12:13:33.971Z,526.17
2022-09-23T12:13:43.963Z,526.06
2022-09-23T12:13:53.964Z,525.99
2022-09-23T12:15:10.887Z,525.82
2022-09-23T12:15:20.863Z,525.54
2022-09-23T12:16:39.229Z,525.75
2022-09-23T12:16:49.270Z,525.86
2022-09-23T12:16:59.305Z,525.85
2022-09-23T12:17:09.190Z,526.03
2022-09-23T12:17:19.187Z,526.02
2022-09-23T12:17:29.203Z,525.80
2022-09-23T12:17:39.192Z,526.09
2022-09-23T12:17:49.191Z,526.16
2022-09-23T12:17:59.191Z,526.24
2022-09-23T12:18:09.192Z,526.14
2022-09-23T12:18:23.024Z,526.20
2022-09-23T12:18:29.201Z,526.21
2022-09-23T12:18:39.196Z,526.07
2022-09-23T12:19:05.892Z,526.30
2022-09-23T12:19:06.183Z,526.29
2022-09-23T12:20:21.203Z,526.07
2022-09-23T12:20:31.179Z,526.10
2022-09-23T12:20:41.182Z,526.03
2022-09-23T12:20:51.178Z,526.17
2022-09-23T12:21:08.671Z,526.17
2022-09-23T12:21:27.134Z,526.30
2022-09-23T12:21:46.194Z,526.25
2022-09-23T12:24:45.792Z,526.36
2022-09-23T12:24:55.098Z,526.44
2022-09-23T12:25:05.107Z,526.44
2022-09-23T12:25:15.104Z,526.45
2022-09-23T12:25:25.104Z,526.35
2022-09-23T12:25:35.115Z,526.31
2022-09-23T12:25:45.102Z,526.29
2022-09-23T12:25:55.112Z,526.21
2022-09-23T12:26:05.123Z,526.15
2022-09-23T12:26:15.103Z,526.30
2022-09-23T12:26:25.108Z,526.31
2022-09-23T12:26:35.110Z,526.43
2022-09-23T12:26:45.106Z,526.39
2022-09-23T12:26:55.109Z,526.36
2022-09-23T12:27:05.106Z,526.66
2022-09-23T12:27:15.108Z,526.40
2022-09-23T12:27:25.108Z,526.36
2022-09-23T12:27:35.122Z,526.68
2022-09-23T12:27:45.109Z,526.91
2022-09-23T12:28:06.787Z,526.57
2022-09-23T12:28:07.111Z,526.38
2022-09-23T12:28:17.073Z,526.31
2022-09-23T12:28:27.082Z,526.44
2022-09-23T12:28:37.073Z,526.54
2022-09-23T12:34:44.801Z,526.85
2022-09-23T12:34:54.735Z,526.66
2022-09-23T12:36:20.490Z,527.39
2022-09-23T12:36:30.474Z,527.51
2022-09-23T12:36:40.474Z,527.20
2022-09-23T12:39:22.544Z,527.05
2022-09-23T12:39:31.878Z,526.97
2022-09-23T12:39:41.882Z,526.86
2022-09-23T12:39:51.894Z,527.26
2022-09-23T12:40:01.902Z,527.17
2022-09-23T12:40:11.994Z,526.93
2022-09-23T12:40:21.942Z,527.50
2022-09-23T12:40:31.951Z,527.41
2022-09-23T12:40:41.930Z,527.77
2022-09-23T12:40:51.916Z,527.78
2022-09-23T12:41:01.887Z,527.62
2022-09-23T12:41:11.894Z,527.02
2022-09-23T12:50:53.156Z,527.85
2022-09-23T12:51:03.133Z,527.77
2022-09-23T12:51:13.136Z,527.58
2022-09-23T12:59:24.637Z,528.02
2022-09-23T12:59:34.629Z,527.95
2022-09-23T12:59:44.620Z,528.14
2022-09-23T13:02:03.681Z,528.53
2022-09-23T13:02:13.591Z,528.61
2022-09-23T13:05:19.971Z,528.66
2022-09-23T13:05:29.969Z,528.34
2022-09-23T13:05:39.957Z,528.58
2022-09-23T13:05:49.955Z,528.84
2022-09-23T13:07:15.605Z,528.90
2022-09-23T13:07:25.601Z,528.97
2022-09-23T13:07:35.588Z,528.93
2022-09-23T13:07:45.588Z,528.84
2022-09-23T13:07:55.600Z,528.61
2022-09-23T13:10:38.080Z,529.00
2022-09-23T13:10:48.047Z,529.07
2022-09-23T13:10:58.045Z,529.15
2022-09-23T13:11:08.052Z,529.22
2022-09-23T13:11:18.068Z,529.24
2022-09-23T13:11:28.046Z,529.25
2022-09-23T13:11:38.063Z,529.30
2022-09-23T13:11:48.075Z,529.33
2022-09-23T13:11:58.047Z,529.32
2022-09-23T13:12:08.079Z,529.25
2022-09-23T13:12:18.055Z,529.39
2022-09-23T13:13:54.091Z,529.53
2022-09-23T13:14:04.293Z,529.77
2022-09-23T13:14:14.076Z,529.81
2022-09-23T13:14:36.087Z,529.82
2022-09-23T13:14:36.356Z,529.67
2022-09-23T13:14:46.370Z,529.75
2022-09-23T13:14:56.362Z,529.82
2022-09-23T13:15:06.380Z,529.79
2022-09-23T13:18:03.971Z,529.76
2022-09-23T13:18:12.999Z,529.79
2022-09-23T13:18:23.007Z,529.35
2022-09-23T13:18:33.001Z,529.56
2022-09-23T13:18:43.001Z,529.65
2022-09-23T13:18:53.018Z,529.62
2022-09-23T13:19:03.007Z,529.74
2022-09-23T13:19:13.005Z,529.86
2022-09-23T13:21:07.392Z,529.76
2022-09-23T13:21:17.396Z,529.84
2022-09-23T13:21:27.377Z,529.76
2022-09-23T13:23:02.197Z,529.95
2022-09-23T13:24:28.522Z,530.02
2022-09-23T13:24:38.514Z,529.92
2022-09-23T13:24:48.505Z,529.97
2022-09-23T13:29:08.879Z,530.83
2022-09-23T13:29:18.860Z,530.88
2022-09-23T13:29:28.856Z,530.93
2022-09-23T13:29:38.859Z,530.83
2022-09-23T13:31:08.355Z,530.84
2022-09-23T13:31:18.346Z,530.87
2022-09-23T13:34:00.766Z,531.10
2022-09-23T13:34:01.081Z,531.08
2022-09-23T13:34:11.876Z,531.19
2022-09-23T13:34:21.050Z,531.00
2022-09-23T13:36:28.363Z,531.19
2022-09-23T13:36:38.369Z,531.09
2022-09-23T13:36:48.347Z,531.06
2022-09-23T13:36:58.346Z,531.10
2022-09-23T13:37:08.349Z,531.17
2022-09-23T13:37:22.184Z,531.12
2022-09-23T13:37:28.397Z,531.11
2022-09-23T13:37:38.350Z,531.23
2022-09-23T13:37:48.352Z,531.20
2022-09-23T13:37:58.438Z,531.15
2022-09-23T13:38:08.352Z,531.28
2022-09-23T13:38:18.353Z,531.31
2022-09-23T13:38:28.354Z,531.26
2022-09-23T13:38:38.356Z,531.27
2022-09-23T13:38:48.375Z,531.36
2022-09-23T13:38:58.359Z,531.38
2022-09-23T13:39:08.360Z,531.32
2022-09-23T13:39:18.358Z,531.38
2022-09-23T13:39:28.361Z,531.51
2022-09-23T13:39:38.359Z,531.48
2022-09-23T13:39:48.480Z,531.57
2022-09-23T13:39:58.366Z,531.56
2022-09-23T13:40:08.540Z,531.48
2022-09-23T13:40:18.399Z,531.57
2022-09-23T13:40:28.459Z,531.57
2022-09-23T13:40:38.427Z,531.62
2022-09-23T13:40:48.497Z,531.71
2022-09-23T13:40:58.462Z,531.60
2022-09-23T13:41:08.365Z,531.53
2022-09-23T13:41:18.365Z,531.47
2022-09-23T13:41:28.369Z,531.60
2022-09-23T13:41:50.115Z,531.55
2022-09-23T13:41:50.398Z,531.52
2022-09-23T13:45:30.244Z,531.82
2022-09-23T13:45:40.268Z,531.85
2022-09-23T13:45:50.276Z,531.76
2022-09-23T13:46:00.365Z,531.67
2022-09-23T13:46:10.322Z,531.66
2022-09-23T13:49:01.304Z,531.95
2022-09-23T13:49:23.334Z,531.92
2022-09-23T13:49:23.626Z,531.90
2022-09-23T13:49:33.616Z,531.94
2022-09-23T13:51:49.092Z,532.19
2022-09-23T13:51:59.085Z,532.46
2022-09-23T13:52:09.077Z,532.20
2022-09-23T13:52:19.076Z,532.18
2022-09-23T13:52:29.083Z,532.27
2022-09-23T13:52:39.079Z,532.22
2022-09-23T13:52:49.078Z,532.37
2022-09-23T13:52:59.080Z,532.49
2022-09-23T13:53:09.082Z,532.58
2022-09-23T13:53:19.143Z,532.39
2022-09-23T13:53:29.083Z,532.31
2022-09-23T13:53:39.090Z,532.46
2022-09-23T13:55:11.242Z,532.65
2022-09-23T13:56:31.639Z,532.80
2022-09-23T13:56:41.653Z,532.71
2022-09-23T13:56:51.624Z,532.68
2022-09-23T13:57:01.623Z,532.84
2022-09-23T13:57:11.639Z,532.85
2022-09-23T13:57:21.627Z,532.72
2022-09-23T13:58:51.853Z,532.69
2022-09-23T13:59:01.852Z,532.82
2022-09-23T14:00:36.086Z,532.85
2022-09-23T14:00:46.138Z,533.37
2022-09-23T14:02:02.493Z,532.94
2022-09-23T14:02:12.534Z,532.91
2022-09-23T14:02:22.491Z,532.80
2022-09-23T14:02:32.531Z,532.84
2022-09-23T14:02:42.530Z,532.65
2022-09-23T14:02:52.457Z,532.97
2022-09-23T14:03:02.487Z,532.98
2022-09-23T14:03:12.469Z,532.80
2022-09-23T14:03:22.458Z,532.76
2022-09-23T14:03:36.492Z,532.77
2022-09-23T14:03:42.460Z,532.77
2022-09-23T14:03:52.460Z,532.85
2022-09-23T14:04:02.651Z,532.70
2022-09-23T14:04:12.464Z,532.70
2022-09-23T14:04:22.477Z,532.69
2022-09-23T14:04:32.473Z,532.63
2022-09-23T14:04:54.040Z,532.66
2022-09-23T14:04:54.310Z,532.61
2022-09-23T14:05:04.311Z,532.68
2022-09-23T14:05:14.313Z,532.78
2022-09-23T14:05:24.312Z,532.70
2022-09-23T14:05:34.314Z,532.81
2022-09-23T14:05:44.316Z,532.72
2022-09-23T14:05:54.318Z,532.72
2022-09-23T14:06:04.355Z,532.75
2022-09-23T14:06:14.318Z,532.80
2022-09-23T14:06:24.314Z,532.88
2022-09-23T14:06:34.315Z,532.78
2022-09-23T14:06:44.313Z,532.87
2022-09-23T14:06:54.362Z,532.91
2022-09-23T14:07:04.316Z,532.96
2022-09-23T14:07:14.314Z,532.97
2022-09-23T14:07:24.316Z,532.89
2022-09-23T14:07:34.318Z,533.09
2022-09-23T14:07:44.316Z,533.07
2022-09-23T14:07:54.332Z,533.18
2022-09-23T14:08:04.322Z,533.10
2022-09-23T14:08:14.324Z,533.00
2022-09-23T14:08:24.325Z,532.99
2022-09-23T14:08:34.320Z,532.99
2022-09-23T14:08:44.324Z,533.22
2022-09-23T14:08:54.359Z,533.46
2022-09-23T14:09:04.323Z,533.57
2022-09-23T14:09:14.324Z,533.22
2022-09-23T14:09:24.326Z,533.10
2022-09-23T14:09:34.328Z,533.22
2022-09-23T14:09:44.329Z,533.27
2022-09-23T14:09:54.330Z,533.29
2022-09-23T14:10:04.332Z,533.21
2022-09-23T14:10:14.339Z,533.21
2022-09-23T14:10:24.336Z,533.26
2022-09-23T14:14:52.015Z,533.91
2022-09-23T14:14:52.303Z,533.94
2022-09-23T14:15:05.288Z,533.94
2022-09-23T14:15:12.305Z,533.90
2022-09-23T14:15:22.299Z,533.89
2022-09-23T14:15:32.292Z,533.88
2022-09-23T14:15:42.309Z,533.86
2022-09-23T14:17:12.639Z,534.23
2022-09-23T14:17:22.624Z,534.35
2022-09-23T14:17:32.624Z,534.35
2022-09-23T14:17:42.628Z,534.25
2022-09-23T14:17:52.627Z,534.23
2022-09-23T14:18:02.626Z,534.21
2022-09-23T14:18:12.649Z,534.27
2022-09-23T14:18:22.636Z,534.23
2022-09-23T14:18:32.632Z,534.27
2022-09-23T14:18:42.629Z,534.24
2022-09-23T14:18:52.698Z,534.18
2022-09-23T14:19:02.632Z,534.11
2022-09-23T14:20:19.040Z,534.19
2022-09-23T14:20:29.031Z,534.32
2022-09-23T14:20:39.026Z,534.27
2022-09-23T14:20:49.031Z,534.19
2022-09-23T14:20:59.032Z,534.15
2022-09-23T14:21:09.033Z,534.14
2022-09-23T14:21:19.031Z,534.29
2022-09-23T14:21:29.041Z,534.27
2022-09-23T14:21:39.033Z,534.20
2022-09-23T14:21:49.034Z,534.10
2022-09-23T14:21:59.036Z,534.13
2022-09-23T14:23:46.937Z,534.36
2022-09-23T14:23:56.910Z,534.29
2022-09-23T14:24:07.045Z,534.28
2022-09-23T14:25:52.845Z,534.58
2022-09-23T14:26:02.828Z,534.57
2022-09-23T14:26:12.825Z,534.56
2022-09-23T14:26:22.861Z,534.63
2022-09-23T14:26:32.830Z,534.66
2022-09-23T14:26:42.835Z,534.54
2022-09-23T14:26:52.830Z,534.55
2022-09-23T14:27:02.836Z,534.58
2022-09-23T14:27:12.836Z,534.54
2022-09-23T14:27:22.836Z,534.57
2022-09-23T14:27:32.839Z,534.51
2022-09-23T14:27:42.843Z,534.56
2022-09-23T14:30:55.188Z,534.99
2022-09-23T14:31:05.187Z,535.01
2022-09-23T14:31:15.242Z,535.01
2022-09-23T14:31:25.195Z,535.03
2022-09-23T14:31:35.226Z,535.09
2022-09-23T14:31:45.243Z,535.06
2022-09-23T14:31:55.211Z,535.04
2022-09-23T14:32:05.181Z,535.05
2022-09-23T14:32:15.189Z,535.04
2022-09-23T14:32:25.182Z,535.01
2022-09-23T14:32:35.196Z,534.91
2022-09-23T14:32:45.179Z,534.92
2022-09-23T14:35:04.656Z,534.93
2022-09-23T14:35:14.642Z,534.89
2022-09-23T14:35:24.635Z,535.06
2022-09-23T14:35:34.633Z,535.15
2022-09-23T14:35:44.640Z,534.93
2022-09-23T14:35:54.634Z,534.80
2022-09-23T14:36:04.642Z,534.89
2022-09-23T14:36:14.638Z,534.82
2022-09-23T14:36:24.639Z,534.81
2022-09-23T14:36:34.643Z,534.74
2022-09-23T14:36:44.639Z,534.77
2022-09-23T14:36:54.651Z,534.69
2022-09-23T14:37:04.643Z,534.76
2022-09-23T14:37:14.641Z,534.89
2022-09-23T14:37:24.642Z,535.16
2022-09-23T14:37:34.648Z,535.16
2022-09-23T14:37:44.643Z,535.10
2022-09-23T14:37:54.645Z,535.02
2022-09-23T14:38:04.657Z,534.93
2022-09-23T14:38:23.741Z,534.90
2022-09-23T14:38:24.643Z,534.94
2022-09-23T14:38:34.659Z,534.88
2022-09-23T14:42:02.876Z,535.03
2022-09-23T14:42:12.864Z,535.09
2022-09-23T14:42:22.848Z,535.11
2022-09-23T14:42:32.853Z,535.13
2022-09-23T14:42:42.972Z,535.05
2022-09-23T14:42:52.851Z,535.03
2022-09-23T14:43:02.851Z,534.95
2022-09-23T14:43:12.852Z,535.01
2022-09-23T14:43:22.855Z,535.11
2022-09-23T14:44:37.868Z,535.35
2022-09-23T14:44:47.862Z,535.29
2022-09-23T14:44:57.851Z,535.40
2022-09-23T14:45:07.852Z,535.36
2022-09-23T14:47:19.947Z,535.38
2022-09-23T14:47:29.908Z,535.33
2022-09-23T14:47:39.901Z,535.36
2022-09-23T14:47:49.900Z,535.48
2022-09-23T14:47:59.910Z,535.44
2022-09-23T14:48:09.899Z,535.52
2022-09-23T14:48:19.897Z,535.49
2022-09-23T14:48:29.902Z,535.37
2022-09-23T14:48:39.900Z,535.42
2022-09-23T14:48:49.903Z,535.44
2022-09-23T14:48:59.947Z,535.46
2022-09-23T14:49:09.919Z,535.57
2022-09-23T14:49:19.900Z,535.76
2022-09-23T14:49:29.905Z,535.82
2022-09-23T14:49:39.906Z,535.77
2022-09-23T14:49:49.912Z,535.66
2022-09-23T14:49:59.908Z,535.53
2022-09-23T14:50:09.908Z,535.56
2022-09-23T14:50:19.919Z,535.63
2022-09-23T14:50:29.913Z,535.64
2022-09-23T14:50:40.106Z,535.59
2022-09-23T14:50:49.919Z,535.61
2022-09-23T14:50:59.929Z,535.71
2022-09-23T14:51:13.204Z,535.61
2022-09-23T14:51:20.920Z,535.66
2022-09-23T14:51:29.915Z,535.56
2022-09-23T14:51:39.965Z,535.48
2022-09-23T14:51:49.917Z,535.63
2022-09-23T14:51:59.919Z,535.61
2022-09-23T14:52:09.928Z,535.59
2022-09-23T14:52:19.918Z,535.62
2022-09-23T14:52:29.923Z,535.60
2022-09-23T14:52:39.927Z,535.71
2022-09-23T14:52:49.926Z,535.65
2022-09-23T14:52:59.930Z,535.63
2022-09-23T14:53:09.932Z,535.62
2022-09-23T14:53:19.928Z,535.67
2022-09-23T14:53:29.942Z,535.62
2022-09-23T14:53:39.931Z,535.65
2022-09-23T14:53:49.929Z,535.60
2022-09-23T14:53:59.928Z,535.55
2022-09-23T14:54:09.934Z,535.49
2022-09-23T14:54:19.929Z,535.53
2022-09-23T14:54:29.931Z,535.51
2022-09-23T14:54:39.935Z,535.52
2022-09-23T14:54:49.938Z,535.63
2022-09-23T14:54:59.944Z,535.59
2022-09-23T14:55:09.953Z,535.56
2022-09-23T14:55:19.939Z,535.57
2022-09-23T14:55:29.946Z,535.56
2022-09-23T14:55:39.944Z,535.59
2022-09-23T14:55:49.948Z,535.59
2022-09-23T14:55:59.939Z,535.65
2022-09-23T14:56:10.055Z,535.69
2022-09-23T14:58:27.525Z,535.69
2022-09-23T14:58:37.513Z,535.60
2022-09-23T14:58:52.026Z,535.64
2022-09-23T14:58:58.531Z,535.57
2022-09-23T15:00:19.878Z,536.09
2022-09-23T15:00:29.862Z,535.91
2022-09-23T15:01:27.409Z,535.77
2022-09-23T15:04:21.888Z,536.09
2022-09-23T15:04:31.861Z,536.08
2022-09-23T15:04:41.878Z,536.07
2022-09-23T15:04:53.137Z,536.06
2022-09-23T15:05:01.864Z,536.11
2022-09-23T15:05:11.875Z,536.11
2022-09-23T15:05:21.863Z,536.26
2022-09-23T15:05:31.869Z,536.27
2022-09-23T15:05:41.871Z,536.12
2022-09-23T15:05:51.871Z,536.02
2022-09-23T15:06:05.144Z,536.05
2022-09-23T15:06:12.866Z,536.01
2022-09-23T15:06:21.869Z,536.12
2022-09-23T15:06:31.871Z,536.03
2022-09-23T15:06:41.872Z,536.12
2022-09-23T15:06:51.873Z,536.03
2022-09-23T15:07:01.879Z,536.17
2022-09-23T15:07:11.871Z,536.06
2022-09-23T15:07:21.877Z,536.18
2022-09-23T15:07:31.872Z,536.15
2022-09-23T15:07:41.877Z,536.12
2022-09-23T15:07:51.873Z,536.07
2022-09-23T15:08:01.878Z,536.14
2022-09-23T15:08:11.876Z,536.03
2022-09-23T15:08:21.880Z,536.03
2022-09-23T15:08:31.875Z,536.09
2022-09-23T15:08:41.876Z,536.10
2022-09-23T15:08:51.876Z,536.14
2022-09-23T15:09:01.891Z,536.14
2022-09-23T15:10:35.185Z,536.18
2022-09-23T15:10:45.166Z,536.19
2022-09-23T15:10:55.171Z,536.17
2022-09-23T15:11:08.115Z,536.16
2022-09-23T15:11:15.165Z,536.21
2022-09-23T15:11:25.184Z,536.09
2022-09-23T15:11:35.177Z,535.99
2022-09-23T15:11:45.173Z,536.06
2022-09-23T15:11:55.166Z,536.17
2022-09-23T15:12:05.169Z,536.12
2022-09-23T15:12:15.175Z,536.16
2022-09-23T15:12:25.177Z,536.16
2022-09-23T15:12:35.173Z,536.25
2022-09-23T15:15:59.750Z,536.45
2022-09-23T15:16:09.688Z,536.46
2022-09-23T15:16:19.723Z,536.40
2022-09-23T15:16:29.741Z,536.27
2022-09-23T15:16:39.743Z,536.37
2022-09-23T15:16:49.765Z,536.47
2022-09-23T15:16:59.709Z,536.51
2022-09-23T15:17:09.666Z,536.54
2022-09-23T15:17:19.667Z,536.60
2022-09-23T15:17:29.671Z,536.55
2022-09-23T15:17:39.666Z,536.51
2022-09-23T15:17:49.749Z,536.54
2022-09-23T15:17:59.671Z,536.54
2022-09-23T15:18:09.669Z,536.63
2022-09-23T15:19:24.682Z,536.79
2022-09-23T15:19:34.672Z,536.75
2022-09-23T15:19:44.670Z,536.75
2022-09-23T15:19:54.668Z,536.76
2022-09-23T15:20:04.848Z,536.63
2022-09-23T15:20:14.667Z,536.66
2022-09-23T15:20:24.677Z,536.66
2022-09-23T15:20:34.673Z,536.73
2022-09-23T15:20:44.687Z,536.68
2022-09-23T15:20:54.676Z,536.71
2022-09-23T15:21:04.672Z,536.54
2022-09-23T15:21:14.689Z,536.59
2022-09-23T15:21:24.673Z,536.67
2022-09-23T15:21:34.678Z,536.73
2022-09-23T15:22:55.101Z,536.95
2022-09-23T15:23:05.102Z,536.99
2022-09-23T15:23:15.073Z,537.03
2022-09-23T15:23:27.762Z,536.98
2022-09-23T15:23:35.084Z,536.98
2022-09-23T15:25:16.389Z,537.10
2022-09-23T15:25:26.387Z,537.27
2022-09-23T15:28:02.623Z,536.97
2022-09-23T15:28:12.598Z,537.00
2022-09-23T15:28:22.585Z,536.91
2022-09-23T15:28:48.455Z,536.81
2022-09-23T15:28:48.729Z,536.74
2022-09-23T15:28:58.735Z,536.80
2022-09-23T15:29:08.732Z,536.79
2022-09-23T15:31:24.739Z,537.16
2022-09-23T15:31:34.722Z,537.25
2022-09-23T15:31:44.722Z,537.26
2022-09-23T15:31:54.728Z,537.33
2022-09-23T15:32:04.723Z,537.45
2022-09-23T15:32:14.677Z,537.39
2022-09-23T15:32:24.677Z,537.37
2022-09-23T15:32:34.684Z,537.51
2022-09-23T15:32:44.692Z,537.40
2022-09-23T15:32:54.680Z,537.36
2022-09-23T15:33:04.682Z,537.42
2022-09-23T15:33:14.685Z,537.37
2022-09-23T15:33:24.682Z,537.36
2022-09-23T15:33:34.687Z,537.35
2022-09-23T15:33:44.708Z,537.31
2022-09-23T15:33:54.682Z,537.30
2022-09-23T15:34:04.683Z,537.29
2022-09-23T15:34:14.681Z,537.26
2022-09-23T15:34:24.691Z,537.19
2022-09-23T15:34:34.694Z,537.23
2022-09-23T15:34:44.687Z,537.21
2022-09-23T15:34:54.710Z,537.19
2022-09-23T15:35:04.687Z,537.19
2022-09-23T15:35:14.689Z,537.12
2022-09-23T15:35:24.718Z,537.08
2022-09-23T15:35:34.695Z,537.11
2022-09-23T15:35:44.689Z,537.06
2022-09-23T15:35:54.695Z,537.10
2022-09-23T15:36:04.690Z,537.04
2022-09-23T15:36:14.701Z,537.09
2022-09-23T15:36:24.709Z,537.02
2022-09-23T15:36:34.710Z,537.11
2022-09-23T15:36:44.692Z,537.05
2022-09-23T15:36:54.707Z,536.98
2022-09-23T15:37:04.698Z,537.04
2022-09-23T15:37:14.698Z,537.00
2022-09-23T15:42:46.046Z,537.29
2022-09-23T15:42:56.059Z,537.30
2022-09-23T15:43:06.028Z,537.37
2022-09-23T15:43:20.212Z,537.49
2022-09-23T15:43:27.049Z,537.42
2022-09-23T15:43:36.035Z,537.42
2022-09-23T15:43:46.033Z,537.48
2022-09-23T15:43:56.035Z,537.44
2022-09-23T15:44:06.141Z,537.44
2022-09-23T15:44:16.035Z,537.57
2022-09-23T15:45:32.829Z,537.78
2022-09-23T15:45:42.905Z,537.78
2022-09-23T15:45:52.838Z,537.70
2022-09-23T15:46:02.795Z,537.79
2022-09-23T15:46:12.793Z,537.72
2022-09-23T15:46:22.742Z,537.76
2022-09-23T15:46:32.744Z,537.78
2022-09-23T15:47:47.768Z,537.78
2022-09-23T15:47:57.743Z,537.81
2022-09-23T15:48:07.785Z,537.78
2022-09-23T15:48:17.741Z,537.72
2022-09-23T15:48:27.744Z,537.76
2022-09-23T15:48:37.746Z,537.79
2022-09-23T15:48:47.745Z,537.79
2022-09-23T15:48:58.783Z,537.78
2022-09-23T15:50:50.523Z,537.76
2022-09-23T15:53:21.930Z,537.36